createdAt,value
2022-11-02T00:03:42.388Z,79.48
2022-11-02T00:08:45.395Z,79.65
2022-11-02T00:13:49.469Z,79.47
2022-11-02T00:18:53.928Z,79.54
2022-11-02T00:23:57.433Z,79.17
2022-11-02T00:29:01.543Z,79.22
2022-11-02T00:34:04.285Z,79.02
2022-11-02T00:39:06.917Z,79.07
2022-11-02T00:44:11.050Z,78.85
2022-11-02T00:49:13.933Z,78.72
2022-11-02T00:54:16.834Z,78.92
2022-11-02T00:59:21.336Z,78.93
2022-11-02T01:04:24.048Z,78.76
2022-11-02T01:09:27.752Z,78.84
2022-11-02T01:14:32.191Z,78.66
2022-11-02T01:19:34.866Z,78.68
2022-11-02T01:24:37.608Z,78.70
2022-11-02T01:29:41.641Z,78.75
2022-11-02T01:34:44.305Z,78.56
2022-11-02T01:39:47.106Z,79.13
2022-11-02T01:44:51.161Z,79.17
2022-11-02T01:49:57.083Z,78.85
2022-11-02T01:55:04.483Z,78.86
2022-11-02T02:00:11.725Z,79.05
2022-11-02T02:05:17.626Z,78.65
2022-11-02T02:10:20.488Z,78.76
2022-11-02T02:15:28.105Z,78.91
2022-11-02T02:20:46.745Z,78.66
2022-11-02T02:25:59.554Z,78.48
2022-11-02T02:31:14.022Z,78.54
2022-11-02T02:36:21.558Z,78.36
2022-11-02T02:41:28.078Z,78.34
2022-11-02T02:46:37.149Z,78.45
2022-11-02T02:51:41.303Z,78.27
2022-11-02T02:56:50.566Z,78.28
2022-11-02T03:01:57.009Z,78.27
2022-11-02T03:07:01.763Z,78.17
2022-11-02T03:12:16.899Z,78.42
2022-11-02T03:17:26.973Z,78.29
2022-11-02T03:22:32.863Z,78.27
2022-11-02T03:27:40.516Z,78.10
2022-11-02T03:32:50.987Z,78.23
2022-11-02T03:37:56.855Z,78.35
2022-11-02T03:43:01.285Z,77.98
2022-11-02T03:48:08.383Z,78.00
2022-11-02T03:53:13.756Z,77.88
2022-11-02T03:58:16.760Z,77.87
2022-11-02T04:03:24.117Z,77.68
2022-11-02T04:08:31.085Z,77.53
2022-11-02T04:13:55.596Z,77.81
2022-11-02T04:19:19.013Z,77.62
2022-11-02T04:24:40.022Z,77.72
2022-11-02T04:29:43.589Z,77.78
2022-11-02T04:34:47.635Z,77.80
2022-11-02T04:39:50.414Z,77.60
2022-11-02T04:44:53.522Z,77.57
2022-11-02T04:50:00.789Z,77.57
2022-11-02T04:55:04.851Z,77.67
2022-11-02T05:00:09.658Z,77.33
2022-11-02T05:05:14.834Z,77.57
2022-11-02T05:10:18.572Z,77.47
2022-11-02T05:15:23.191Z,77.48
2022-11-02T05:20:27.453Z,77.61
2022-11-02T05:25:30.477Z,77.23
2022-11-02T05:30:34.090Z,77.06
2022-11-02T05:35:38.282Z,77.13
2022-11-02T05:40:41.679Z,77.47
2022-11-02T05:45:52.852Z,77.16
2022-11-02T05:51:01.155Z,77.49
2022-11-02T05:56:05.969Z,77.46
2022-11-02T06:01:09.662Z,77.25
2022-11-02T06:06:13.738Z,77.09
2022-11-02T06:11:17.329Z,77.03
2022-11-02T06:16:23.109Z,77.17
2022-11-02T06:21:27.584Z,76.98
2022-11-02T06:26:30.246Z,76.83
2022-11-02T06:31:32.927Z,76.89
2022-11-02T06:36:37.042Z,76.95
2022-11-02T06:41:39.683Z,76.84
2022-11-02T06:46:42.347Z,76.76
2022-11-02T06:51:46.398Z,76.63
2022-11-02T06:56:49.035Z,76.49
2022-11-02T07:01:54.261Z,76.46
2022-11-02T07:06:58.441Z,76.58
2022-11-02T07:12:01.083Z,76.58
2022-11-02T07:17:03.772Z,76.65
2022-11-02T07:22:07.782Z,78.14
2022-11-02T07:27:10.422Z,79.31
2022-11-02T07:32:13.465Z,79.24
2022-11-02T07:37:17.552Z,78.81
2022-11-02T07:42:20.303Z,79.25
2022-11-02T07:47:25.797Z,80.56
2022-11-02T07:52:29.865Z,80.34
2022-11-02T07:57:32.513Z,79.61
2022-11-02T08:02:35.210Z,79.08
2022-11-02T08:07:39.286Z,78.84
2022-11-02T08:12:41.929Z,77.56
2022-11-02T08:17:44.640Z,77.03
2022-11-02T08:22:48.736Z,76.67
2022-11-02T08:27:51.398Z,76.03
2022-11-02T08:32:57.027Z,76.11
2022-11-02T08:38:01.676Z,75.22
2022-11-02T08:43:06.125Z,73.75
2022-11-02T08:48:09.168Z,72.76
2022-11-02T08:53:13.173Z,73.38
2022-11-02T08:58:15.873Z,72.81
2022-11-02T09:03:25.038Z,72.32
2022-11-02T09:08:30.883Z,72.57
2022-11-02T09:13:33.672Z,71.55
2022-11-02T09:18:36.356Z,71.05
2022-11-02T09:23:40.405Z,70.98
2022-11-02T09:28:43.198Z,71.18
2022-11-02T09:33:46.220Z,71.10
2022-11-02T09:38:50.369Z,70.90
2022-11-02T09:43:59.263Z,70.95
2022-11-02T09:49:04.754Z,70.42
2022-11-02T09:54:17.429Z,70.87
2022-11-02T09:59:21.896Z,70.61
2022-11-02T10:04:57.719Z,70.67
2022-11-02T10:10:05.068Z,70.55
2022-11-02T10:15:13.491Z,70.47
2022-11-02T10:20:21.935Z,70.48
2022-11-02T10:25:26.073Z,70.35
2022-11-02T10:30:29.177Z,70.36
2022-11-02T10:35:51.409Z,70.50
2022-11-02T10:41:10.657Z,70.28
2022-11-02T10:46:22.894Z,70.59
2022-11-02T10:51:25.938Z,70.18
2022-11-02T10:56:32.833Z,70.33
2022-11-02T11:01:35.637Z,70.24
2022-11-02T11:06:40.208Z,70.26
2022-11-02T11:11:54.142Z,70.55
2022-11-02T11:22:26.873Z,71.60
2022-11-02T11:27:30.986Z,72.02
2022-11-02T11:32:35.242Z,72.57
2022-11-02T11:37:38.396Z,73.12
2022-11-02T11:42:43.604Z,73.49
2022-11-02T11:47:46.384Z,73.91
2022-11-02T11:52:50.746Z,74.08
2022-11-02T11:58:08.378Z,74.30
2022-11-02T12:03:13.066Z,74.32
2022-11-02T12:08:36.091Z,74.26
2022-11-02T12:13:59.026Z,74.80
2022-11-02T12:19:13.872Z,75.73
2022-11-02T12:24:38.511Z,75.54
2022-11-02T12:30:02.745Z,75.92
2022-11-02T12:35:28.881Z,76.90
2022-11-02T12:40:45.298Z,77.37
2022-11-02T12:45:55.566Z,77.76
2022-11-02T12:51:00.829Z,77.75
2022-11-02T12:56:05.521Z,77.91
2022-11-02T13:01:13.983Z,78.03
2022-11-02T13:06:23.083Z,77.71
2022-11-02T13:11:30.773Z,77.61
2022-11-02T13:16:39.795Z,77.57
2022-11-02T13:21:46.006Z,77.53
2022-11-02T13:26:57.087Z,77.22
2022-11-02T13:32:09.905Z,77.00
2022-11-02T13:37:16.094Z,76.86
2022-11-02T13:42:27.903Z,76.87
2022-11-02T13:48:05.736Z,76.80
2022-11-02T13:53:09.987Z,76.83
2022-11-02T13:58:22.662Z,79.72
2022-11-02T14:03:29.281Z,82.03
2022-11-02T14:08:35.511Z,81.45
2022-11-02T14:14:19.671Z,80.19
2022-11-02T14:19:25.909Z,79.95
2022-11-02T14:24:56.915Z,79.61
2022-11-02T14:29:59.715Z,79.32
2022-11-02T14:35:34.348Z,79.60
2022-11-02T14:40:44.619Z,79.65
2022-11-02T14:46:06.575Z,79.45
2022-11-02T14:51:17.731Z,79.40
2022-11-02T14:56:20.364Z,79.11
2022-11-02T15:01:23.409Z,79.23
2022-11-02T15:06:31.716Z,78.89
2022-11-02T15:11:51.332Z,78.90
2022-11-02T15:16:54.219Z,78.93
2022-11-02T15:22:32.450Z,78.59
2022-11-02T15:27:36.009Z,78.62
2022-11-02T15:32:41.005Z,78.59
2022-11-02T15:38:11.374Z,78.56
2022-11-02T15:43:13.003Z,78.63
2022-11-02T15:48:26.941Z,78.73
2022-11-02T15:53:46.473Z,78.40
2022-11-02T15:59:04.326Z,78.52
2022-11-02T16:04:08.081Z,78.72
2022-11-02T16:14:40.119Z,78.74
2022-11-02T16:19:42.792Z,78.70
2022-11-02T16:24:47.574Z,78.41
2022-11-02T16:29:52.013Z,78.68
2022-11-02T16:34:54.755Z,78.35
2022-11-02T16:39:57.559Z,78.19
2022-11-02T16:45:04.109Z,78.39
2022-11-02T16:50:20.022Z,78.51
2022-11-02T16:55:40.779Z,78.43
2022-11-02T17:00:58.234Z,78.29
2022-11-02T17:06:03.359Z,78.50
2022-11-02T17:11:07.480Z,78.18
2022-11-02T17:16:12.491Z,78.73
2022-11-02T17:21:36.032Z,78.57
2022-11-02T17:26:38.737Z,78.67
2022-11-02T17:31:43.729Z,78.47
2022-11-02T17:36:48.913Z,78.62
2022-11-02T17:42:12.427Z,78.45
2022-11-02T17:47:18.656Z,78.61
2022-11-02T17:52:21.434Z,79.72
2022-11-02T17:57:24.122Z,80.08
2022-11-02T18:02:28.208Z,80.30
2022-11-02T18:07:30.896Z,80.89
2022-11-02T18:12:33.600Z,80.84
2022-11-02T18:17:37.678Z,81.02
2022-11-02T18:22:40.550Z,81.14
2022-11-02T18:27:43.634Z,80.80
2022-11-02T18:32:47.854Z,80.50
2022-11-02T18:37:51.159Z,80.66
2022-11-02T18:42:53.908Z,80.38
2022-11-02T18:47:57.999Z,80.48
2022-11-02T18:53:00.697Z,80.11
2022-11-02T18:58:03.702Z,80.09
2022-11-02T19:03:08.105Z,80.06
2022-11-02T19:08:28.448Z,80.24
2022-11-02T19:13:31.193Z,79.88
2022-11-02T19:18:35.429Z,79.86
2022-11-02T19:23:38.165Z,79.88
2022-11-02T19:28:40.834Z,79.72
2022-11-02T19:33:45.023Z,79.56
2022-11-02T19:38:47.790Z,79.59
2022-11-02T19:43:50.569Z,79.01
2022-11-02T19:48:54.942Z,79.32
2022-11-02T19:53:59.229Z,78.97
2022-11-02T19:59:02.347Z,78.79
2022-11-02T20:04:06.648Z,78.85
2022-11-02T20:09:15.011Z,78.78
2022-11-02T20:14:18.602Z,78.79
2022-11-02T20:19:22.604Z,78.88
2022-11-02T20:24:25.282Z,78.43
2022-11-02T20:29:27.981Z,78.42
2022-11-02T20:34:32.013Z,78.69
2022-11-02T20:39:34.647Z,78.49
2022-11-02T20:44:37.438Z,78.38
2022-11-02T20:49:50.536Z,78.48
2022-11-02T20:54:53.982Z,78.42
2022-11-02T20:59:56.665Z,78.63
2022-11-02T21:05:00.727Z,78.12
2022-11-02T21:10:03.451Z,77.86
2022-11-02T21:15:07.338Z,78.09
2022-11-02T21:20:32.608Z,77.03
2022-11-02T21:25:36.324Z,77.97
2022-11-02T21:30:39.034Z,77.89
2022-11-02T21:35:43.101Z,77.75
2022-11-02T21:40:45.749Z,78.17
2022-11-02T21:45:52.840Z,78.31
2022-11-02T21:51:05.871Z,77.93
2022-11-02T21:56:10.045Z,77.76
2022-11-02T22:01:32.058Z,77.76
2022-11-02T22:06:37.487Z,77.88
2022-11-02T22:11:40.685Z,77.81
2022-11-02T22:16:44.433Z,78.05
2022-11-02T22:21:49.412Z,77.93
2022-11-02T22:26:52.233Z,77.62
2022-11-02T22:31:55.044Z,77.44
2022-11-02T22:37:19.077Z,77.41
2022-11-02T22:42:21.786Z,76.86
2022-11-02T22:47:24.491Z,77.69
2022-11-02T22:52:28.483Z,77.88
2022-11-02T22:57:31.187Z,77.93
2022-11-02T23:02:33.867Z,77.67
2022-11-02T23:07:37.971Z,77.77
2022-11-02T23:12:40.735Z,77.78
2022-11-02T23:17:43.416Z,78.02
2022-11-02T23:23:05.087Z,76.75
2022-11-02T23:33:34.153Z,77.79
2022-11-02T23:38:55.770Z,77.62
2022-11-02T23:44:12.756Z,77.59
2022-11-02T23:49:17.311Z,78.00
2022-11-02T23:54:39.012Z,78.29
2022-11-02T23:59:41.731Z,78.05
